Terminal Aerodrome Forecast
Issued by NWS

Home | Current Version | Previous Version | Text Only | Print | Product List | Glossary On
Versions: 1 2 3 4 5 6 7 8 9 10 11 12 13 14 15 16 17
901
FTUS44 KLZK 271145
TAFPBF
TAF
KPBF 271145Z 2712/2812 07003KT P6SM -RA BKN009 OVC080
     FM271500 08005KT P6SM VCSH OVC025
     FM271800 10006KT P6SM OVC027
     FM280000 12006KT P6SM VCSH SCT015 BKN025
      TEMPO 2802/2806 4SM -TSRA BKN015 OVC025CB=

USA.gov is the U.S. government's official web portal to all federal, state and local government web resources and services.